Titan — WDD7142 — position and weather

sailwx.info

Track history (hours):
 
Tides and Currents Weather Stations Pressure Air Temp Water Temp Dewpoint Dewpoint Depression Visibility Wind Speed Wind Dir Waves Ship Positions

Titan

Owner: Seabulk Towing Service,Inc, Groves, TX. More information available from US FCC via Universal Licensing System and Coast Guard Vessel Documentation Center.

Last reported at 2017-Sep-17 05:17 UTC. Time now 2017-Sep-21 09:03 UTC.
Position N 29°52' W 093°56'.

Length 32 m.

Type: Tug. MMSI: 366268050.

Date/timePositionNaut miles runAvg speedWind from/ knotsBaromVisibWave heightAir tempDewpointWater temp
2017-Sep-17 05:17N 29°52' W 093°56'0 0.0
2017-Sep-17 04:50N 29°52' W 093°56'0 0.0
2017-Sep-17 04:08N 29°52' W 093°56'0 0.0
2017-Sep-17 03:41N 29°52' W 093°56'0 0.0
2017-Sep-17 03:28N 29°52' W 093°56'0 0.0
2017-Sep-17 03:00N 29°52' W 093°56'0 0.0
2017-Sep-17 02:31N 29°52' W 093°56'0 0.0
2017-Sep-17 02:00N 29°52' W 093°56'1 0.0
2017-Sep-16 04:22N 29°51' W 093°57'0 0.4
2017-Sep-16 03:25N 29°52' W 093°56'0 0.0
2017-Sep-16 02:48N 29°52' W 093°56'1 1.0
2017-Sep-16 01:28N 29°50' W 093°57'1 0.1
2017-Sep-15 06:03N 29°52' W 093°56'0 0.0
2017-Sep-15 04:09N 29°52' W 093°56'0 0.0
2017-Sep-15 04:01N 29°52' W 093°56'8 0.3
2017-Sep-14 02:53N 29°59' W 093°53'2 0.1
2017-Sep-13 03:05N 29°57' W 093°52'0 0.0
2017-Sep-13 02:37N 29°57' W 093°52'0 0.0
2017-Sep-13 02:30N 29°57' W 093°52'0 0.0
2017-Sep-13 01:54N 29°57' W 093°52'6 0.3
2017-Sep-12 06:15N 29°52' W 093°56'  
Track history (hours):
 
Tides and Currents Weather Stations Pressure Air Temp Water Temp Dewpoint Dewpoint Depression Visibility Wind Speed Wind Dir Waves Ship Positions

Titan

Owner: Seabulk Towing Service,Inc, Groves, TX. More information available from US FCC via Universal Licensing System and Coast Guard Vessel Documentation Center.

Last reported at 2017-Sep-17 05:17 UTC. Time now 2017-Sep-21 09:03 UTC.
Position N 29°52' W 093°56'.

Length 32 m.

Type: Tug. MMSI: 366268050.

Date/timePositionNaut miles runAvg speedWind from/ knotsBaromVisibWave heightAir tempDewpointWater temp
2017-Sep-17 05:17N 29°52' W 093°56'0 0.0
2017-Sep-17 04:50N 29°52' W 093°56'0 0.0
2017-Sep-17 04:08N 29°52' W 093°56'0 0.0
2017-Sep-17 03:41N 29°52' W 093°56'0 0.0
2017-Sep-17 03:28N 29°52' W 093°56'0 0.0
2017-Sep-17 03:00N 29°52' W 093°56'0 0.0
2017-Sep-17 02:31N 29°52' W 093°56'0 0.0
2017-Sep-17 02:00N 29°52' W 093°56'1 0.0
2017-Sep-16 04:22N 29°51' W 093°57'0 0.4
2017-Sep-16 03:25N 29°52' W 093°56'0 0.0
2017-Sep-16 02:48N 29°52' W 093°56'1 1.0
2017-Sep-16 01:28N 29°50' W 093°57'1 0.1
2017-Sep-15 06:03N 29°52' W 093°56'0 0.0
2017-Sep-15 04:09N 29°52' W 093°56'0 0.0
2017-Sep-15 04:01N 29°52' W 093°56'8 0.3
2017-Sep-14 02:53N 29°59' W 093°53'2 0.1
2017-Sep-13 03:05N 29°57' W 093°52'0 0.0
2017-Sep-13 02:37N 29°57' W 093°52'0 0.0
2017-Sep-13 02:30N 29°57' W 093°52'0 0.0
2017-Sep-13 01:54N 29°57' W 093°52'6 0.3
2017-Sep-12 06:15N 29°52' W 093°56'  

Dump ship's entire track history